ホニアラ の空港の天気 - METARとTAF

ホニアラ国際空港 ( AGGH / HIR ) - ソロモン諸島 ガダルカナル島ホニアラ
飛行場実況気象(Metar)
観測時間10/16 19:00 SBT (10/16 08:00 UTC)
風向・風速北北東 1m/s
視程10km以上
天気現象
少しの雲 雲底高度 580m
全天の4割程度の雲 雲底高度 9140m
気温28℃
湿度74%
気圧1010hPa
METARAGGH 160800Z 02002KT 9999 FEW019 SCT300 28/23 Q1010
過去の天気等 Google飛行場航空写真 Wunderground天気予報

過去48時間のMETAR

飛行場予報(TAF)
発表時間: 10/16 16:13 SBT (10/16 05:13 UTC)
予報対象時間: 16日17時 SBT ~ 17日17時 SBT
風向・風速不定 2m/s
視程10km以上
全天の4割程度の雲 雲底高度 520m
TAF AGGH 160513Z 1606/1706 VRB03KT 9999 SCT017 T 30 28 26 24 Q 1008 1010 1011 1009